createdAt,value
2018-02-14T00:01:34.574Z,-3.19
2018-02-14T00:04:06.160Z,-3.20
2018-02-14T00:06:34.712Z,-3.20
2018-02-14T00:09:04.949Z,-3.21
2018-02-14T00:11:35.914Z,-3.22
2018-02-14T00:14:06.079Z,-3.22
2018-02-14T00:16:34.566Z,-3.24
2018-02-14T00:21:40.390Z,-3.27
2018-02-14T00:24:13.013Z,-3.28
2018-02-14T00:26:42.063Z,-3.28
2018-02-14T00:29:12.164Z,-3.30
2018-02-14T00:31:47.730Z,-3.31
2018-02-14T00:34:16.318Z,-3.32
2018-02-14T00:36:44.852Z,-3.34
2018-02-14T00:39:14.096Z,-3.37
2018-02-14T00:41:42.793Z,-3.39
2018-02-14T00:44:11.288Z,-3.42
2018-02-14T00:46:42.695Z,-3.43
2018-02-14T00:49:11.556Z,-3.45
2018-02-14T00:51:40.236Z,-3.46
2018-02-14T00:54:12.316Z,-3.48
2018-02-14T00:56:43.640Z,-3.50
2018-02-14T00:59:14.889Z,-3.51
2018-02-14T01:01:47.257Z,-3.52
2018-02-14T01:04:17.874Z,-3.53
2018-02-14T01:06:46.992Z,-3.53
2018-02-14T01:09:15.542Z,-3.54
2018-02-14T01:11:46.000Z,-3.55
2018-02-14T01:14:14.582Z,-3.57
2018-02-14T01:16:45.013Z,-3.58
2018-02-14T01:19:17.574Z,-3.60
2018-02-14T01:21:51.054Z,-3.61
2018-02-14T01:24:21.490Z,-3.62
2018-02-14T01:26:51.776Z,-3.63
2018-02-14T01:29:23.179Z,-3.64
2018-02-14T01:31:52.383Z,-3.65
2018-02-14T01:34:20.862Z,-3.66
2018-02-14T01:36:51.052Z,-3.67
2018-02-14T01:39:20.605Z,-3.67
2018-02-14T01:41:50.891Z,-3.66
2018-02-14T01:44:24.877Z,-3.69
2018-02-14T01:46:53.620Z,-3.68
2018-02-14T01:49:22.308Z,-3.69
2018-02-14T01:51:51.516Z,-3.69
2018-02-14T01:54:21.722Z,-3.69
2018-02-14T01:56:50.301Z,-3.70
2018-02-14T01:59:23.717Z,-3.70
2018-02-14T02:01:52.283Z,-3.70
2018-02-14T02:04:22.809Z,-3.71
2018-02-14T02:06:51.527Z,-3.72
2018-02-14T02:09:25.815Z,-3.74
2018-02-14T02:11:54.427Z,-3.75
2018-02-14T02:14:25.022Z,-3.74
2018-02-14T02:16:56.339Z,-3.74
2018-02-14T02:19:26.835Z,-3.74
2018-02-14T02:21:56.320Z,-3.73
2018-02-14T02:24:27.386Z,-3.74
2018-02-14T02:26:59.209Z,-3.71
2018-02-14T02:29:29.766Z,-3.73
2018-02-14T02:31:58.562Z,-3.73
2018-02-14T02:34:28.173Z,-3.74
2018-02-14T02:36:56.719Z,-3.75
2018-02-14T02:39:37.402Z,-3.78
2018-02-14T02:42:06.650Z,-3.81
2018-02-14T02:44:37.729Z,-3.80
2018-02-14T02:47:18.727Z,-3.78
2018-02-14T02:49:47.219Z,-3.79
2018-02-14T02:52:17.432Z,-3.80
2018-02-14T02:54:46.953Z,-3.80
2018-02-14T02:57:21.817Z,-3.83
2018-02-14T02:59:50.577Z,-3.85
2018-02-14T03:02:26.223Z,-3.86
2018-02-14T03:04:57.336Z,-3.88
2018-02-14T03:07:26.366Z,-3.93
2018-02-14T03:09:54.958Z,-3.96
2018-02-14T03:12:26.116Z,-3.99
2018-02-14T03:14:56.379Z,-4.00
2018-02-14T03:17:29.854Z,-4.03
2018-02-14T03:19:58.504Z,-4.06
2018-02-14T03:22:27.295Z,-4.08
2018-02-14T03:24:57.949Z,-4.11
2018-02-14T03:27:28.324Z,-4.12
2018-02-14T03:30:01.372Z,-4.14
2018-02-14T03:32:29.867Z,-4.14
2018-02-14T03:35:02.989Z,-4.18
2018-02-14T03:37:32.233Z,-4.18
2018-02-14T03:40:01.213Z,-4.20
2018-02-14T03:42:31.447Z,-4.21
2018-02-14T03:45:02.363Z,-4.20
2018-02-14T03:47:32.685Z,-4.21
2018-02-14T03:50:05.701Z,-4.23
2018-02-14T03:52:34.191Z,-4.25
2018-02-14T03:55:03.883Z,-4.28
2018-02-14T03:57:32.555Z,-4.31
2018-02-14T04:00:06.149Z,-4.35
2018-02-14T04:02:35.810Z,-4.36
2018-02-14T04:05:06.795Z,-4.36
2018-02-14T04:07:35.771Z,-4.38
2018-02-14T04:10:05.131Z,-4.38
2018-02-14T04:12:33.585Z,-4.38
2018-02-14T04:15:04.056Z,-4.37
2018-02-14T04:17:32.712Z,-4.37
2018-02-14T04:20:01.411Z,-4.39
2018-02-14T04:22:31.731Z,-4.39
2018-02-14T04:25:02.649Z,-4.39
2018-02-14T04:27:32.880Z,-4.40
2018-02-14T04:30:08.065Z,-4.39
2018-02-14T04:32:37.374Z,-4.40
2018-02-14T04:35:05.933Z,-4.41
2018-02-14T04:37:39.253Z,-4.41
2018-02-14T04:40:10.414Z,-4.42
2018-02-14T04:42:38.971Z,-4.42
2018-02-14T04:45:07.594Z,-4.42
2018-02-14T04:47:37.564Z,-4.41
2018-02-14T04:50:07.975Z,-4.40
2018-02-14T04:52:39.309Z,-4.41
2018-02-14T04:55:08.644Z,-4.39
2018-02-14T04:57:38.965Z,-4.28
2018-02-14T05:00:10.020Z,-4.22
2018-02-14T05:02:44.983Z,-4.16
2018-02-14T05:05:15.206Z,-4.11
2018-02-14T05:07:43.741Z,-4.07
2018-02-14T05:10:13.914Z,-4.04
2018-02-14T05:12:42.655Z,-4.05
2018-02-14T05:15:11.907Z,-4.06
2018-02-14T05:17:40.540Z,-4.08
2018-02-14T05:20:10.863Z,-4.12
2018-02-14T05:22:40.432Z,-4.15
2018-02-14T05:25:10.304Z,-4.17
2018-02-14T05:27:38.997Z,-4.24
2018-02-14T05:30:07.680Z,-4.34
2018-02-14T05:32:36.580Z,-4.37
2018-02-14T05:35:06.707Z,-4.42
2018-02-14T05:37:37.124Z,-4.48
2018-02-14T05:40:08.894Z,-4.50
2018-02-14T05:42:38.198Z,-4.51
2018-02-14T05:45:10.619Z,-4.55
2018-02-14T05:47:39.663Z,-4.53
2018-02-14T05:50:10.762Z,-4.51
2018-02-14T05:52:41.447Z,-4.45
2018-02-14T05:55:14.780Z,-4.40
2018-02-14T05:57:47.093Z,-4.42
2018-02-14T06:00:20.374Z,-4.52
2018-02-14T06:02:51.954Z,-4.60
2018-02-14T06:05:20.618Z,-4.59
2018-02-14T06:07:51.170Z,-4.52
2018-02-14T06:10:21.450Z,-4.49
2018-02-14T06:12:52.766Z,-4.47
2018-02-14T06:15:23.024Z,-4.47
2018-02-14T06:17:53.906Z,-4.46
2018-02-14T06:20:22.492Z,-4.45
2018-02-14T06:22:52.683Z,-4.43
2018-02-14T06:25:26.024Z,-4.43
2018-02-14T06:27:58.271Z,-4.45
2018-02-14T06:30:29.975Z,-4.41
2018-02-14T06:32:59.340Z,-4.36
2018-02-14T06:35:30.526Z,-4.33
2018-02-14T06:38:01.640Z,-4.32
2018-02-14T06:40:32.145Z,-4.33
2018-02-14T06:43:00.696Z,-4.34
2018-02-14T06:45:30.930Z,-4.35
2018-02-14T06:48:01.902Z,-4.34
2018-02-14T06:50:31.114Z,-4.35
2018-02-14T06:53:01.374Z,-4.32
2018-02-14T06:55:33.100Z,-4.34
2018-02-14T06:58:02.332Z,-4.30
2018-02-14T07:00:33.328Z,-4.32
2018-02-14T07:03:11.846Z,-4.34
2018-02-14T07:05:41.994Z,-4.32
2018-02-14T07:08:30.055Z,-4.32
2018-02-14T07:10:58.475Z,-4.31
2018-02-14T07:13:28.994Z,-4.32
2018-02-14T07:16:01.691Z,-4.29
2018-02-14T07:18:31.960Z,-4.27
2018-02-14T07:21:02.867Z,-4.24
2018-02-14T07:23:33.207Z,-4.18
2018-02-14T07:26:04.102Z,-4.13
2018-02-14T07:28:34.177Z,-4.13
2018-02-14T07:31:04.762Z,-4.08
2018-02-14T07:33:34.695Z,-4.05
2018-02-14T07:36:06.848Z,-4.02
2018-02-14T07:38:37.106Z,-3.97
2018-02-14T07:41:11.095Z,-3.91
2018-02-14T07:43:41.412Z,-3.85
2018-02-14T07:48:47.696Z,-3.79
2018-02-14T07:51:17.411Z,-3.77
2018-02-14T07:53:45.967Z,-3.69
2018-02-14T07:56:14.370Z,-3.65
2018-02-14T07:58:44.815Z,-3.60
2018-02-14T08:01:13.491Z,-3.54
2018-02-14T08:03:42.143Z,-3.48
2018-02-14T08:06:12.404Z,-3.47
2018-02-14T08:08:44.943Z,-3.39
2018-02-14T08:13:48.565Z,-3.19
2018-02-14T08:16:22.132Z,-3.11
2018-02-14T08:18:52.287Z,-3.04
2018-02-14T08:21:23.327Z,-2.94
2018-02-14T08:23:53.685Z,-2.88
2018-02-14T08:26:24.613Z,-2.87
2018-02-14T08:28:55.748Z,-2.83
2018-02-14T08:31:26.064Z,-2.82
2018-02-14T08:33:59.199Z,-2.76
2018-02-14T08:36:30.266Z,-2.66
2018-02-14T08:39:00.685Z,-2.57
2018-02-14T08:41:31.615Z,-2.45
2018-02-14T08:44:00.199Z,-2.33
2018-02-14T08:46:31.375Z,-2.23
2018-02-14T08:48:59.964Z,-2.14
2018-02-14T08:51:28.608Z,-2.05
2018-02-14T08:53:58.131Z,-1.98
2018-02-14T08:56:26.705Z,-1.91
2018-02-14T08:58:55.905Z,-1.83
2018-02-14T09:01:24.693Z,-1.76
2018-02-14T09:03:54.796Z,-1.73
2018-02-14T09:06:25.325Z,-1.70
2018-02-14T09:08:57.139Z,-1.59
2018-02-14T09:11:27.555Z,-1.53
2018-02-14T09:13:58.523Z,-1.47
2018-02-14T09:16:29.782Z,-1.37
2018-02-14T09:18:59.990Z,-1.33
2018-02-14T09:21:32.605Z,-1.32
2018-02-14T09:24:01.315Z,-1.23
2018-02-14T09:26:29.998Z,-1.19
2018-02-14T09:28:58.699Z,-1.10
2018-02-14T09:31:27.368Z,-1.05
2018-02-14T09:33:55.970Z,-0.97
2018-02-14T09:36:26.200Z,-0.95
2018-02-14T09:38:57.187Z,-0.91
2018-02-14T09:41:26.548Z,-0.88
2018-02-14T09:43:59.185Z,-0.80
2018-02-14T09:46:27.685Z,-0.69
2018-02-14T09:48:57.764Z,-0.63
2018-02-14T09:51:27.238Z,-0.54
2018-02-14T09:53:55.701Z,-0.46
2018-02-14T09:56:27.699Z,-0.38
2018-02-14T09:58:57.767Z,-0.29
2018-02-14T10:01:29.553Z,-0.35
2018-02-14T10:03:59.171Z,-0.33
2018-02-14T10:06:28.473Z,-0.33
2018-02-14T10:08:57.274Z,-0.24
2018-02-14T10:11:25.749Z,-0.16
2018-02-14T10:13:56.057Z,-0.03
2018-02-14T10:16:24.657Z,0.10
2018-02-14T10:18:53.383Z,0.22
2018-02-14T10:21:21.933Z,0.31
2018-02-14T10:23:50.425Z,0.41
2018-02-14T10:26:20.633Z,0.50
2018-02-14T10:28:50.944Z,0.56
2018-02-14T10:31:19.443Z,0.74
2018-02-14T10:33:49.764Z,0.72
2018-02-14T10:36:20.466Z,0.73
2018-02-14T10:38:49.109Z,0.85
2018-02-14T10:41:19.409Z,0.90
2018-02-14T10:43:52.084Z,0.92
2018-02-14T10:46:28.147Z,0.96
2018-02-14T10:48:58.477Z,0.98
2018-02-14T10:51:30.158Z,1.05
2018-02-14T10:53:59.051Z,1.17
2018-02-14T10:56:29.282Z,1.18
2018-02-14T10:58:58.784Z,1.21
2018-02-14T11:01:32.887Z,1.29
2018-02-14T11:06:41.858Z,1.31
2018-02-14T11:09:10.747Z,1.50
2018-02-14T11:11:39.235Z,1.67
2018-02-14T11:14:07.911Z,1.75
2018-02-14T11:16:38.310Z,1.86
2018-02-14T11:19:07.739Z,2.02
2018-02-14T11:21:36.320Z,2.05
2018-02-14T11:24:09.442Z,2.07
2018-02-14T11:26:37.960Z,2.09
2018-02-14T11:29:06.589Z,2.20
2018-02-14T11:31:36.780Z,2.23
2018-02-14T11:34:07.041Z,2.26
2018-02-14T11:36:39.716Z,2.27
2018-02-14T11:39:10.762Z,2.20
2018-02-14T11:41:40.946Z,2.17
2018-02-14T11:44:16.414Z,2.12
2018-02-14T11:46:47.651Z,2.15
2018-02-14T11:49:16.261Z,2.10
2018-02-14T11:51:56.520Z,2.11
2018-02-14T11:54:25.064Z,2.14
2018-02-14T11:56:53.682Z,2.07
2018-02-14T11:59:23.928Z,1.99
2018-02-14T12:01:54.841Z,2.01
2018-02-14T12:04:24.354Z,2.13
2018-02-14T12:06:57.660Z,2.26
2018-02-14T12:09:27.955Z,2.22
2018-02-14T12:11:57.489Z,2.24
2018-02-14T12:14:27.805Z,2.29
2018-02-14T12:17:00.327Z,2.32
2018-02-14T12:19:30.742Z,2.26
2018-02-14T12:22:00.533Z,2.19
2018-02-14T12:24:30.638Z,2.22
2018-02-14T12:27:00.982Z,2.21
2018-02-14T12:29:31.930Z,2.21
2018-02-14T12:32:00.513Z,2.20
2018-02-14T12:34:30.804Z,2.23
2018-02-14T12:37:01.680Z,2.31
2018-02-14T12:39:30.261Z,2.30
2018-02-14T12:41:58.951Z,2.37
2018-02-14T12:44:27.436Z,2.30
2018-02-14T12:46:55.930Z,2.27
2018-02-14T12:49:24.347Z,2.28
2018-02-14T12:51:57.449Z,2.25
2018-02-14T12:54:25.997Z,2.23
2018-02-14T12:56:54.580Z,2.25
2018-02-14T12:59:23.080Z,2.25
2018-02-14T13:01:51.942Z,2.23
2018-02-14T13:04:23.914Z,2.22
2018-02-14T13:06:54.216Z,2.24
2018-02-14T13:09:23.744Z,2.34
2018-02-14T13:11:54.578Z,2.32
2018-02-14T13:14:23.259Z,2.28
2018-02-14T13:16:51.844Z,2.30
2018-02-14T13:19:20.323Z,2.39
2018-02-14T13:21:48.727Z,2.39
2018-02-14T13:24:17.213Z,2.39
2018-02-14T13:26:47.881Z,2.32
2018-02-14T13:29:18.467Z,2.26
2018-02-14T13:31:47.155Z,2.33
2018-02-14T13:34:16.366Z,2.23
2018-02-14T13:36:49.866Z,2.15
2018-02-14T13:39:22.116Z,2.05
2018-02-14T13:41:52.427Z,1.96
2018-02-14T13:44:22.170Z,1.90
2018-02-14T13:46:50.655Z,1.91
2018-02-14T13:49:21.001Z,1.97
2018-02-14T13:51:50.486Z,1.96
2018-02-14T13:54:19.694Z,1.96
2018-02-14T13:56:48.437Z,1.91
2018-02-14T13:59:20.133Z,1.93
2018-02-14T14:01:50.516Z,1.97
2018-02-14T14:04:21.723Z,1.98
2018-02-14T14:06:50.483Z,1.91
2018-02-14T14:09:19.083Z,1.90
2018-02-14T14:11:47.480Z,1.84
2018-02-14T14:14:19.127Z,1.85
2018-02-14T14:16:49.562Z,1.86
2018-02-14T14:19:21.337Z,1.87
2018-02-14T14:21:50.115Z,1.98
2018-02-14T14:24:21.719Z,2.08
2018-02-14T14:26:50.450Z,2.16
2018-02-14T14:29:19.007Z,2.19
2018-02-14T14:31:49.169Z,2.09
2018-02-14T14:34:17.682Z,2.08
2018-02-14T14:36:49.308Z,2.18
2018-02-14T14:39:22.645Z,2.28
2018-02-14T14:41:53.679Z,2.38
2018-02-14T14:44:24.039Z,2.44
2018-02-14T14:46:56.815Z,2.50
2018-02-14T14:49:29.554Z,2.53
2018-02-14T14:51:58.845Z,2.58
2018-02-14T14:54:27.620Z,2.66
2018-02-14T14:56:56.724Z,2.70
2018-02-14T14:59:25.309Z,2.75
2018-02-14T15:01:55.724Z,2.80
2018-02-14T15:04:29.281Z,2.80
2018-02-14T15:07:07.967Z,2.69
2018-02-14T15:09:36.744Z,2.66
2018-02-14T15:12:05.335Z,2.69
2018-02-14T15:14:33.898Z,2.78
2018-02-14T15:17:03.141Z,2.94
2018-02-14T15:19:33.545Z,3.11
2018-02-14T15:22:07.196Z,3.17
2018-02-14T15:24:37.462Z,3.20
2018-02-14T15:27:08.587Z,3.10
2018-02-14T15:29:37.225Z,3.05
2018-02-14T15:32:08.565Z,3.05
2018-02-14T15:34:37.119Z,3.05
2018-02-14T15:37:07.313Z,3.01
2018-02-14T15:39:36.218Z,2.96
2018-02-14T15:42:06.561Z,2.76
2018-02-14T15:44:37.842Z,2.68
2018-02-14T15:47:06.611Z,2.55
2018-02-14T15:49:35.333Z,2.48
2018-02-14T15:52:03.916Z,2.37
2018-02-14T15:54:32.590Z,2.40
2018-02-14T15:57:02.791Z,2.31
2018-02-14T15:59:31.399Z,2.29
2018-02-14T16:02:02.594Z,2.28
2018-02-14T16:04:33.066Z,2.24
2018-02-14T16:07:05.826Z,2.18
2018-02-14T16:09:36.887Z,2.11
2018-02-14T16:12:08.139Z,2.08
2018-02-14T16:14:43.125Z,2.03
2018-02-14T16:17:12.250Z,1.96
2018-02-14T16:19:43.999Z,1.91
2018-02-14T16:22:14.093Z,1.85
2018-02-14T16:24:42.624Z,1.81
2018-02-14T16:27:12.128Z,1.76
2018-02-14T16:29:40.735Z,1.72
2018-02-14T16:32:12.824Z,1.68
2018-02-14T16:34:41.815Z,1.61
2018-02-14T16:37:10.585Z,1.50
2018-02-14T16:39:39.315Z,1.44
2018-02-14T16:42:21.058Z,1.39
2018-02-14T16:44:49.545Z,1.30
2018-02-14T16:47:24.387Z,1.23
2018-02-14T16:49:54.572Z,1.18
2018-02-14T16:52:23.288Z,1.16
2018-02-14T16:54:51.871Z,1.14
2018-02-14T16:57:20.481Z,1.09
2018-02-14T16:59:53.842Z,1.04
2018-02-14T17:02:29.527Z,1.00
2018-02-14T17:04:58.195Z,0.97
2018-02-14T17:07:29.411Z,0.94
2018-02-14T17:09:58.238Z,0.90
2018-02-14T17:12:27.020Z,0.84
2018-02-14T17:14:57.424Z,0.80
2018-02-14T17:17:26.732Z,0.74
2018-02-14T17:19:55.443Z,0.69
2018-02-14T17:22:23.946Z,0.62
2018-02-14T17:24:55.026Z,0.57
2018-02-14T17:27:24.304Z,0.53
2018-02-14T17:29:52.852Z,0.49
2018-02-14T17:32:23.188Z,0.44
2018-02-14T17:34:54.124Z,0.40
2018-02-14T17:37:25.266Z,0.34
2018-02-14T17:39:55.432Z,0.28
2018-02-14T17:42:24.179Z,0.25
2018-02-14T17:44:52.762Z,0.20
2018-02-14T17:47:21.362Z,0.16
2018-02-14T17:49:51.643Z,0.12
2018-02-14T17:52:24.445Z,0.06
2018-02-14T17:54:58.087Z,0.03
2018-02-14T17:57:26.956Z,-0.01
2018-02-14T17:59:55.548Z,-0.06
2018-02-14T18:02:27.404Z,-0.11
2018-02-14T18:04:57.614Z,-0.13
2018-02-14T18:07:26.958Z,-0.18
2018-02-14T18:09:59.104Z,-0.23
2018-02-14T18:12:27.596Z,-0.25
2018-02-14T18:14:56.125Z,-0.30
2018-02-14T18:17:24.657Z,-0.34
2018-02-14T18:19:53.244Z,-0.38
2018-02-14T18:22:23.605Z,-0.41
2018-02-14T18:24:54.802Z,-0.44
2018-02-14T18:27:24.247Z,-0.48
2018-02-14T18:29:54.513Z,-0.52
2018-02-14T18:32:28.043Z,-0.56
2018-02-14T18:34:57.372Z,-0.60
2018-02-14T18:37:26.014Z,-0.63
2018-02-14T18:39:54.615Z,-0.65
2018-02-14T18:42:23.091Z,-0.70
2018-02-14T18:44:53.303Z,-0.73
2018-02-14T18:47:25.980Z,-0.77
2018-02-14T18:49:58.766Z,-0.78
2018-02-14T18:52:30.601Z,-0.83
2018-02-14T18:55:00.986Z,-0.86
2018-02-14T18:57:32.369Z,-0.90
2018-02-14T19:00:00.877Z,-0.92
2018-02-14T19:02:29.599Z,-0.96
2018-02-14T19:04:58.299Z,-1.01
2018-02-14T19:07:29.424Z,-1.04
2018-02-14T19:09:58.122Z,-1.06
2018-02-14T19:12:31.635Z,-1.11
2018-02-14T19:15:02.767Z,-1.17
2018-02-14T19:17:33.074Z,-1.22
2018-02-14T19:20:04.554Z,-1.25
2018-02-14T19:22:33.239Z,-1.26
2018-02-14T19:25:01.726Z,-1.26
2018-02-14T19:27:32.031Z,-1.27
2018-02-14T19:30:05.616Z,-1.30
2018-02-14T19:32:34.237Z,-1.31
2018-02-14T19:35:06.584Z,-1.32
2018-02-14T19:37:40.929Z,-1.36
2018-02-14T19:40:28.744Z,-1.38
2018-02-14T19:42:59.168Z,-1.44
2018-02-14T19:45:32.428Z,-1.42
2018-02-14T19:48:11.294Z,-1.44
2018-02-14T19:50:56.916Z,-1.48
2018-02-14T19:53:31.187Z,-1.50
2018-02-14T19:56:02.395Z,-1.50
2018-02-14T19:58:37.385Z,-1.54
2018-02-14T20:01:24.196Z,-1.59
2018-02-14T20:03:52.857Z,-1.66
2018-02-14T20:06:21.636Z,-1.69
2018-02-14T20:08:56.311Z,-1.69
2018-02-14T20:11:25.172Z,-1.73
2018-02-14T20:13:55.603Z,-1.75
2018-02-14T20:16:26.745Z,-1.78
2018-02-14T20:18:56.074Z,-1.77
2018-02-14T20:21:24.767Z,-1.77
2018-02-14T20:23:54.329Z,-1.77
2018-02-14T20:26:23.680Z,-1.78
2018-02-14T20:28:52.340Z,-1.83
2018-02-14T20:31:21.020Z,-1.92
2018-02-14T20:33:52.070Z,-1.99
2018-02-14T20:36:30.772Z,-2.04
2018-02-14T20:38:59.700Z,-2.10
2018-02-14T20:41:28.352Z,-2.16
2018-02-14T20:43:56.955Z,-2.16
2018-02-14T20:46:28.675Z,-2.14
2018-02-14T20:48:58.977Z,-2.09
2018-02-14T20:51:30.169Z,-2.09
2018-02-14T20:54:03.712Z,-2.06
2018-02-14T20:56:34.823Z,-2.07
2018-02-14T20:59:05.149Z,-2.08
2018-02-14T21:01:36.288Z,-2.09
2018-02-14T21:04:06.641Z,-2.10
2018-02-14T21:06:39.425Z,-2.09
2018-02-14T21:09:10.960Z,-2.13
2018-02-14T21:11:41.381Z,-2.16
2018-02-14T21:14:10.717Z,-2.13
2018-02-14T21:16:39.380Z,-2.12
2018-02-14T21:19:08.017Z,-2.14
2018-02-14T21:21:39.401Z,-2.18
2018-02-14T21:24:07.991Z,-2.24
2018-02-14T21:26:36.594Z,-2.30
2018-02-14T21:29:05.224Z,-2.36
2018-02-14T21:31:35.583Z,-2.38
2018-02-14T21:34:06.844Z,-2.37
2018-02-14T21:36:37.045Z,-2.38
2018-02-14T21:39:09.473Z,-2.39
2018-02-14T21:41:42.842Z,-2.40
2018-02-14T21:44:13.118Z,-2.41
2018-02-14T21:46:52.726Z,-2.42
2018-02-14T21:49:26.466Z,-2.43
2018-02-14T21:51:59.315Z,-2.46
2018-02-14T21:54:29.212Z,-2.46
2018-02-14T21:56:58.949Z,-2.49
2018-02-14T21:59:28.224Z,-2.50
2018-02-14T22:01:56.849Z,-2.52
2018-02-14T22:04:27.849Z,-2.54
2018-02-14T22:06:59.666Z,-2.63
2018-02-14T22:09:28.189Z,-2.73
2018-02-14T22:11:56.677Z,-2.82
2018-02-14T22:14:26.996Z,-2.91
2018-02-14T22:16:57.434Z,-2.91
2018-02-14T22:19:28.612Z,-2.87
2018-02-14T22:21:57.248Z,-2.87
2018-02-14T22:24:25.711Z,-2.88
2018-02-14T22:26:55.941Z,-2.87
2018-02-14T22:29:25.700Z,-2.89
2018-02-14T22:31:54.253Z,-2.92
2018-02-14T22:34:22.965Z,-2.95
2018-02-14T22:36:52.674Z,-3.01
2018-02-14T22:39:21.608Z,-3.05
2018-02-14T22:41:52.239Z,-3.10
2018-02-14T22:44:23.017Z,-3.13
2018-02-14T22:46:54.248Z,-3.15
2018-02-14T22:49:23.533Z,-3.17
2018-02-14T22:51:52.990Z,-3.11
2018-02-14T22:54:21.577Z,-3.05
2018-02-14T22:56:57.752Z,-2.99
2018-02-14T22:59:28.057Z,-2.96
2018-02-14T23:01:58.885Z,-2.91
2018-02-14T23:04:27.371Z,-2.92
2018-02-14T23:06:58.812Z,-3.00
2018-02-14T23:09:34.499Z,-3.06
2018-02-14T23:12:03.103Z,-3.07
2018-02-14T23:14:31.975Z,-3.09
2018-02-14T23:17:00.631Z,-3.14
2018-02-14T23:19:29.172Z,-3.15
2018-02-14T23:21:57.729Z,-3.18
2018-02-14T23:24:27.127Z,-3.17
2018-02-14T23:26:57.337Z,-3.18
2018-02-14T23:29:26.885Z,-3.22
2018-02-14T23:31:55.447Z,-3.26
2018-02-14T23:34:24.021Z,-3.30
2018-02-14T23:36:52.718Z,-3.36
2018-02-14T23:39:21.303Z,-3.41
2018-02-14T23:41:50.616Z,-3.48
2018-02-14T23:44:25.413Z,-3.53
2018-02-14T23:46:55.671Z,-3.56
2018-02-14T23:49:26.890Z,-3.57
2018-02-14T23:51:57.257Z,-3.58
2018-02-14T23:54:25.826Z,-3.53
2018-02-14T23:56:54.408Z,-3.54
2018-02-14T23:59:22.971Z,-3.55
